Terminal Aerodrome Forecast
Issued by NWS

Home | Current Version | Previous Version | Text Only | Print | Product List | Glossary On
Versions: 1 2 3 4 5 6 7 8 9 10 11 12 13 14 15 16
000
FTUS43 KBIS 111700
TAFDIK
TAF
KDIK 111731Z 1118/1218 02010KT P6SM VCSH BKN120
     FM120500 05008KT P6SM VCTS BKN050CB
     FM121300 11006KT P6SM VCTS SCT030 BKN050CB
     FM121700 29009KT P6SM SCT050 SCT090=

USA.gov is the U.S. government's official web portal to all federal, state and local government web resources and services.